Milford, Utah Weather observations

Data are for observation ending at time listed.
 Day   Time    Ave.   Ave.  Ave.  Vector   Max.   Stn.    Total    Solar   Ave.  
  of    of     Air    Rel.  Wind   Wind    Wind   Baro.  Precip.   Rad.    Soil  
Year   Day     Temp.  Hum.  Speed  Dir.    Gust   Pres.                    Temp. 
2014   (MST)    F      %     mph   deg.    mph     mb.     in.     W/m2     F   
------------------------------------------------------------------------------
 355   11:20   43.4    66    3.6   212      8.7   846.3    0.00     224    41.2
 355   11:30   44.6    65    3.3   210      7.5   846.2    0.00     228    41.1
 355   11:40   45.2    64    4.4   204     11.0   846.2    0.00     352    41.2
 355   11:50   45.1    63    4.0   206      9.6   846.2    0.00     220    41.2
 355   12:00   45.7    62    4.8   204     10.2   846.2    0.00     320    41.3
 355   12:10   47.3    59    5.2   193      9.9   845.9    0.00     415    40.9
 355   12:20   47.7    58    5.4   197     11.6   845.9    0.00     376    41.0
 355   12:30   48.5    57    4.8   200     11.3   845.9    0.00     374    41.1
 355   12:40   49.1    56    5.2   194     11.4   846.0    0.00     403    41.2
 355   12:50   49.0    57    4.5   204     10.9   845.9    0.00     255    41.2
 355   13:00   49.7    57    4.4   198      8.2   845.6    0.00     405    41.3
 355   13:10   50.1    55    5.6   190     11.6   845.7    0.00     384    41.2
 355   13:20   50.6    55    4.7   202     11.6   845.9    0.00     303    41.0
 355   13:30   50.2    55    5.1   190     11.5   845.9    0.00     228    41.3
 355   13:40   50.6    55    6.5   182     11.8   845.6    0.00     263    41.4
 355   13:50   52.2    53    7.1   181     13.2   845.7    0.00     418    41.2
 355   14:00   52.3    52    8.1   177     13.3   845.6    0.00     316    41.2
 355   14:10   51.6    53    7.6   176     13.0   845.5    0.00     144    41.4
 355   14:20   51.4    53    6.9   177     12.2   845.2    0.00     115    41.3
 355   14:30   51.2    53    5.3   183      9.1   845.1    0.00      82    41.4
 355   14:40   51.1    53    5.7   184     10.4   844.6    0.00      81    41.3
 355   14:50   51.3    54    6.8   183     10.7   844.1    0.00      63    99999.0
 355   15:00   53.2    51    5.9   183     11.5   844.3    0.00     110    41.4
 355   15:10   53.8    49    7.9   174     14.6   844.2    0.00      95    41.4
 355   15:20   54.0    49    6.3   176     11.3   844.6    0.00      88    41.2
 355   15:30   54.6    47    6.8   176     12.2   844.4    0.00      46    41.3
 355   15:40   54.9    47    6.2   175     10.7   844.5    0.00      80    41.5
 355   15:50   55.3    47    5.9   169      9.9   844.7    0.00      61    41.5
 355   16:00   55.1    47    5.1   170      9.2   844.8    0.00      36    41.6
 355   16:10   55.0    48    4.8   180      8.1   844.8    0.00      32    41.5
 355   16:20   54.8    48    4.4   176      8.9   844.9    0.00      37    41.7
 355   16:30   54.6    49    3.2   185      7.5   845.0    0.00      36    41.6
 355   16:40   54.1    50    1.6   215      3.7   845.1    0.00      26    41.7
 355   16:50   53.6    52    3.0   208      9.3   845.0    0.00      13    41.8
 355   17:00   54.4    49    5.5   188      9.6   844.9    0.00       9    41.7
 355   17:10   53.5    51    5.2   186      8.3   844.9    0.00       5    41.7
 355   17:20   52.4    54    2.7   208      6.1   844.9    0.00       3    41.7
 355   17:30   52.1    54    2.7   196      6.1   845.1    0.00       3    41.8
 355   17:40   51.5    55    3.8   187      9.2   844.9    0.00       0    41.9
 355   17:50   51.0    55    4.7   189      8.0   844.5    0.00       0    42.1
 355   18:00   50.3    56    5.2   180      8.7   844.1    0.00       0    41.7
 355   18:10   49.6    57    5.5   181      9.6   844.2    0.00       0    42.1
 355   18:20   49.0    58    5.0   187      9.5   844.3    0.00       0    42.4
 355   18:30   48.6    59    4.7   186      7.7   844.3    0.00       0    42.4
 355   18:40   48.8    59    4.5   186      8.1   844.5    0.00       0    42.0
 355   18:50   48.3    60    3.4   184      5.2   844.5    0.00       0    42.4
 355   19:00   47.9    61    4.1   192      9.0   844.5    0.00       0    42.3
 355   19:10   47.3    62    4.4   189      8.2   844.5    0.00       0    42.3
 355   19:20   46.3    64    4.1   190      7.5   844.6    0.00       0    42.5
 355   19:30   45.9    65    3.4   194      7.2   844.4    0.00       0    42.4
 355   19:40   45.7    65    2.5   219      4.5   844.5    0.00       0    42.3
 355   19:50   46.0    65    2.7   204      5.0   844.7    0.00       0    42.5
 355   20:00   45.8    65    3.0   189      4.7   844.8    0.00       0    42.9
 355   20:10   45.4    66    2.1   199      5.6   844.9    0.00       0    42.5
 355   20:20   45.2    66    2.0   231      4.9   844.7    0.00       0    42.6
 355   20:30   45.1    67    1.9   224      5.4   844.5    0.00       0    42.4
 355   20:40   44.5    68    3.1   230      5.5   844.5    0.00       0    42.5
 355   20:50   44.7    68    3.1   237      6.3   844.5    0.00       0    42.3
 355   21:00   44.6    68    3.0   233      6.3   844.5    0.00       0    42.8
 355   21:10   44.3    68    2.5   230      5.9   844.4    0.00       0    42.7
 355   21:20   44.6    68    3.1   233      7.0   844.5    0.00       0    42.4
 355   21:30   44.7    68    1.8   216      4.2   844.5    0.00       0    42.4
 355   21:40   43.6    69    1.7   214      3.9   844.6    0.00       0    42.3
 355   21:50   42.3    70    1.8   214      3.6   844.9    0.00       0    42.9
 355   22:00   42.9    71    2.7   237      4.7   844.8    0.00       0    42.8
 355   22:10   41.9    72    2.0   211      3.9   844.6    0.00       0    42.6
 355   22:20   41.9    73    1.7   232      3.1   844.6    0.00       0    42.6
 355   22:30   41.7    73    1.9   216      4.4   844.7    0.00       0    42.8
 355   22:40   40.6    74    1.6   217      2.7   844.8    0.00       0    42.7
 355   22:50   40.6    76    1.5   209      3.6   844.7    0.00       0    42.9
 355   23:00   40.6    76    1.4   184      3.5   844.9    0.00       0    42.7
 355   23:10   40.1    76    2.2   214      4.3   844.6    0.00       0    42.9
 355   23:20   39.1    78    1.5   209      3.7   844.3    0.00       0    42.9
 355   23:30   38.0    78    0.8   121      2.3   844.4    0.00       0    43.0
 355   23:40   37.0    80    0.1   159      0.9   844.5    0.00       0    42.9
 355   23:50   36.7    80    0.0   180      1.1   844.4    0.00       0    43.0
 356    0:00   36.3    81    0.4   210      1.4   844.3    0.00       0    42.9
 356    0:10   36.2    82    0.2   259      2.5   844.3    0.00       0    43.1
 356    0:20   37.3    82    1.3   249      3.5   844.3    0.00       0    43.0
 356    0:30   37.1    82    0.5    17      1.8   844.3    0.00       1    42.9
 356    0:40   36.0    82    0.8    74      2.3   844.4    0.00       0    99999.0
 356    0:50   35.2    82    1.5   187      3.0   844.4    0.00       0    99999.0
 356    1:00   34.9    83    1.0   218      2.0   844.4    0.00       0    42.6
 356    1:10   35.3    84    0.6   202      1.8   844.3    0.00       1    42.5
 356    1:20   35.1    84    0.8   231      1.8   844.2    0.00       0    42.7
 356    1:30   34.7    84    0.2   206      1.7   844.2    0.00       0    42.8
 356    1:40   34.6    85    0.1   306      1.2   844.1    0.00       0    42.7
 356    1:50   34.5    85    0.5     4      1.8   844.2    0.00       0    42.7
 356    2:00   34.4    85    0.4    20      1.5   844.2    0.00       0    42.7
 356    2:10   34.2    85    0.0    55      0.9   844.2    0.00       0    42.7
 356    2:20   34.3    86    0.0     0      0.0   844.2    0.00       0    42.8
 356    2:30   35.1    86    1.3   235      2.1   844.2    0.00       0    42.7
 356    2:40   35.1    86    0.4   239      1.3   844.3    0.00       0    42.6
 356    2:50   34.8    86    0.5   308      2.3   844.4    0.00       0    42.8
 356    3:00   34.8    86    0.8   317      2.8   844.5    0.00       0    42.7
 356    3:10   34.6    86    1.3   304      2.7   844.4    0.00       0    42.7
 356    3:20   34.6    86    0.1   333      2.3   844.4    0.00       0    42.7
 356    3:30   35.3    86    0.5   316      2.2   844.3    0.00       0    42.7
 356    3:40   35.5    86    2.3   295      3.5   844.3    0.00       0    42.7
 356    3:50   34.8    86    1.8   285      3.0   844.4    0.00       0    42.7
 356    4:00   33.4    86    1.0   129      2.9   844.4    0.00       0    42.6
 356    4:10   32.3    87    0.5   195      1.5   844.2    0.00       0    42.7
 356    4:20   32.0    88    0.0     0      0.0   843.8    0.00       0    42.6
 356    4:30   32.9    88    0.5   263      2.6   843.7    0.00       0    42.6
 356    4:40   33.2    88    1.5   266      2.3   843.7    0.00       0    42.7
 356    4:50   33.0    88    1.3   292      2.1   843.8    0.00       0    42.7
 356    5:00   32.7    89    0.1     7      1.2   843.6    0.00       0    42.7
 356    5:10   31.3    88    0.3    68      2.0   843.6    0.00       0    42.7
 356    5:20   30.2    89    0.0   331      0.6   843.4    0.00       0    42.7
 356    5:30   30.2    89    2.1   239      2.9   843.4    0.00       0    42.7
 356    5:40   30.5    90    1.7   252      2.9   843.2    0.00       0    42.6
 356    5:50   31.3    90    2.6   255      3.9   843.2    0.00       0    42.6
 356    6:00   31.1    90    2.2   241      3.4   843.1    0.00       0    42.7
 356    6:10   30.9    90    2.0   230      3.9   843.2    0.00       0    42.5
 356    6:20   30.9    90    2.3   221      5.0   843.0    0.00       0    42.6
 356    6:30   30.4    91    2.8   207      4.8   842.9    0.00       0    42.4
 356    6:40   30.7    91    2.0   229      5.1   843.0    0.00       0    42.6
 356    6:50   30.9    91    1.5   194      4.2   843.2    0.00       0    42.6
 356    7:00   30.5    91    2.0   177      4.1   843.0    0.00       0    42.5
 356    7:10   30.2    91    1.3   223      4.3   843.2    0.00       0    42.5
 356    7:20   30.1    91    0.9   114      3.1   843.2    0.00       0    42.6
 356    7:30   29.1    91    2.1   184      4.0   843.0    0.00       0    42.6
 356    7:40   28.8    92    1.1   187      2.8   843.0    0.00       0    42.5
 356    7:50   28.7    92    2.0   192      3.9   843.0    0.00       2    42.5
 356    8:00   29.0    92    1.9   216      3.5   842.8    0.00       5    42.4
 356    8:10   29.1    92    1.8   166      3.4   842.8    0.00       8    42.4
 356    8:20   28.7    92    1.3   194      2.7   842.8    0.00      16    42.4
 356    8:30   29.4    92    1.5   218      2.7   842.8    0.00      15    42.4
 356    8:40   30.2    92    1.7   165      4.2   842.8    0.00      16    42.4
 356    8:50   29.8    92    0.8   148      2.7   843.0    0.00      33    42.5
 356    9:00   30.1    92    1.5   169      2.7   843.0    0.00      55    42.4
 356    9:10   30.7    92    1.4   198      3.3   842.9    0.00      45    42.3
 356    9:20   32.7    91    1.7   144      3.7   843.1    0.00     179    42.3
 356    9:30   33.9    90    1.8   154      3.1   843.3    0.00     209    42.3
 356    9:40   34.4    90    2.8   165      4.6   843.5    0.00     124    42.3
 356    9:50   35.9    90    1.8   194      3.2   843.6    0.00     118    42.3
 356   10:00   37.9    89    2.2   220      4.4   843.7    0.00     103    42.3
 356   10:10   41.4    86    3.3   194      5.6   843.7    0.00      77    42.3
 356   10:20   44.0    77    4.3   184      8.5   843.9    0.00     190    42.2
 356   10:30   46.9    68    3.8   177      8.8   844.0    0.00     296    42.2
 356   10:40   47.4    64    4.7   169     10.2   844.3    0.00     192    42.2
 356   10:50   47.3    63    4.8   164      8.3   844.7    0.00     344    42.2
 356   11:00   47.7    62    8.2   168     13.7   844.6    0.00     284    42.2
 356   11:10   47.9    61    6.0   179      9.9   844.7    0.00     189    42.3

Return to Milford, Utah graphs page.


Western Regional Climate Center,wrcc@dri.edu